Epic Bermuda — 9HGF9 — position and weather

sailwx.info

Track history (hours):
 
Tides and Currents Weather Stations Pressure Air Temp Water Temp Dewpoint Dewpoint Depression Visibility Wind Speed Wind Dir Waves Ship Positions

Epic Bermuda

Last reported at 2018-Jun-23 09:58 UTC. Time now 2018-Jun-23 09:59 UTC.
Position N 37°57' W 009°43'.

Length 119 m; draft 5.3 m.

MMSI: 256942000.

Date/timePositionNaut miles runAvg speedWind from/ knotsBaromVisibWave heightAir tempDewpointWater temp
2018-Jun-23 09:58N 37°57' W 009°43'812.5
2018-Jun-23 09:20N 37°49' W 009°41'412.6
2018-Jun-23 09:00N 37°45' W 009°40'612.8
2018-Jun-23 08:30N 37°39' W 009°38'7311.8
2018-Jun-23 02:20N 36°35' W 008°54'  
2018-Jun-20 13:11N 37°20' W 000°55'413.6
2018-Jun-20 12:55N 37°22' W 000°51'713.8
2018-Jun-20 12:25N 37°27' W 000°44'813.9
2018-Jun-20 11:52N 37°32' W 000°37'513.7
2018-Jun-20 11:30N 37°36' W 000°33'713.9
2018-Jun-20 11:00N 37°41' W 000°28'3513.6
2018-Jun-20 08:27N 38°10' W 000°05'1613.7
2018-Jun-20 07:17N 38°24' E 000°07'13913.6
2018-Jun-19 21:05N 40°29' E 001°24'113.5
2018-Jun-19 21:01N 40°30' E 001°25'713.5
2018-Jun-19 20:30N 40°36' E 001°29'51 1.2
2018-Jun-18 03:11N 39°52' E 000°56'412.8
2018-Jun-18 02:53N 39°48' E 000°55'4412.8
2018-Jun-17 23:28N 39°06' E 000°37'612.6
2018-Jun-17 22:58N 39°00' E 000°35'612.6
2018-Jun-17 22:30N 38°55' E 000°33'1812.7
2018-Jun-17 21:06N 38°38' E 000°25'112.6
2018-Jun-17 20:59N 38°37' E 000°24'812.8
2018-Jun-17 20:23N 38°31' E 000°18'512.9
2018-Jun-17 20:00N 38°26' E 000°15'713.0
2018-Jun-17 19:27N 38°21' E 000°10'612.8
2018-Jun-17 18:59N 38°16' E 000°05'612.7
2018-Jun-17 18:30N 38°11' E 000°01'612.7
2018-Jun-17 18:00N 38°05' W 000°04'613.0
2018-Jun-17 17:30N 37°60' W 000°08'713.1
2018-Jun-17 16:59N 37°54' W 000°13'612.8
2018-Jun-17 16:30N 37°49' W 000°17'612.5
2018-Jun-17 16:00N 37°44' W 000°22'612.6
2018-Jun-17 15:30N 37°39' W 000°26'712.9
2018-Jun-17 14:59N 37°33' W 000°31'611.8
2018-Jun-17 14:30N 37°31' W 000°37'611.9
2018-Jun-17 14:00N 37°31' W 000°45'611.8
2018-Jun-17 13:30N 37°31' W 000°52'611.2
2018-Jun-17 12:59N 37°32' W 000°59'2 0.1
2018-Jun-16 13:55N 37°34' W 000°57'2 3.6
2018-Jun-16 13:23N 37°34' W 000°60'1 1.8
2018-Jun-16 12:59N 37°33' W 000°60'1 2.7
2018-Jun-16 12:29N 37°32' W 000°59'0 0.9
2018-Jun-16 12:00N 37°32' W 000°59'4 7.2
2018-Jun-16 11:25N 37°32' W 000°54'613.8
2018-Jun-16 11:00N 37°32' W 000°46'713.6
2018-Jun-16 10:30N 37°32' W 000°38'612.9
2018-Jun-16 10:00N 37°37' W 000°32'713.9
2018-Jun-16 09:29N 37°43' W 000°27'813.7
2018-Jun-16 08:55N 37°49' W 000°21'613.7
2018-Jun-16 08:28N 37°54' W 000°17'613.5
2018-Jun-16 08:01N 37°60' W 000°13'713.6
2018-Jun-16 07:30N 38°05' W 000°08'713.7
2018-Jun-16 07:00N 38°11' W 000°03'713.6
2018-Jun-16 06:31N 38°17' E 000°01'713.6
2018-Jun-16 06:00N 38°23' E 000°06'713.7
2018-Jun-16 05:29N 38°29' E 000°11'613.5
2018-Jun-16 05:01N 38°34' E 000°15'713.2
2018-Jun-16 04:31N 38°39' E 000°20'713.4
2018-Jun-16 04:00N 38°45' E 000°24'713.3
2018-Jun-16 03:30N 38°52' E 000°27'  
Track history (hours):
 
Tides and Currents Weather Stations Pressure Air Temp Water Temp Dewpoint Dewpoint Depression Visibility Wind Speed Wind Dir Waves Ship Positions

Epic Bermuda

Last reported at 2018-Jun-23 09:58 UTC. Time now 2018-Jun-23 09:59 UTC.
Position N 37°57' W 009°43'.

Length 119 m; draft 5.3 m.

MMSI: 256942000.

Date/timePositionNaut miles runAvg speedWind from/ knotsBaromVisibWave heightAir tempDewpointWater temp
2018-Jun-23 09:58N 37°57' W 009°43'812.5
2018-Jun-23 09:20N 37°49' W 009°41'412.6
2018-Jun-23 09:00N 37°45' W 009°40'612.8
2018-Jun-23 08:30N 37°39' W 009°38'7311.8
2018-Jun-23 02:20N 36°35' W 008°54'  
2018-Jun-20 13:11N 37°20' W 000°55'413.6
2018-Jun-20 12:55N 37°22' W 000°51'713.8
2018-Jun-20 12:25N 37°27' W 000°44'813.9
2018-Jun-20 11:52N 37°32' W 000°37'513.7
2018-Jun-20 11:30N 37°36' W 000°33'713.9
2018-Jun-20 11:00N 37°41' W 000°28'3513.6
2018-Jun-20 08:27N 38°10' W 000°05'1613.7
2018-Jun-20 07:17N 38°24' E 000°07'13913.6
2018-Jun-19 21:05N 40°29' E 001°24'113.5
2018-Jun-19 21:01N 40°30' E 001°25'713.5
2018-Jun-19 20:30N 40°36' E 001°29'51 1.2
2018-Jun-18 03:11N 39°52' E 000°56'412.8
2018-Jun-18 02:53N 39°48' E 000°55'4412.8
2018-Jun-17 23:28N 39°06' E 000°37'612.6
2018-Jun-17 22:58N 39°00' E 000°35'612.6
2018-Jun-17 22:30N 38°55' E 000°33'1812.7
2018-Jun-17 21:06N 38°38' E 000°25'112.6
2018-Jun-17 20:59N 38°37' E 000°24'812.8
2018-Jun-17 20:23N 38°31' E 000°18'512.9
2018-Jun-17 20:00N 38°26' E 000°15'713.0
2018-Jun-17 19:27N 38°21' E 000°10'612.8
2018-Jun-17 18:59N 38°16' E 000°05'612.7
2018-Jun-17 18:30N 38°11' E 000°01'612.7
2018-Jun-17 18:00N 38°05' W 000°04'613.0
2018-Jun-17 17:30N 37°60' W 000°08'713.1
2018-Jun-17 16:59N 37°54' W 000°13'612.8
2018-Jun-17 16:30N 37°49' W 000°17'612.5
2018-Jun-17 16:00N 37°44' W 000°22'612.6
2018-Jun-17 15:30N 37°39' W 000°26'712.9
2018-Jun-17 14:59N 37°33' W 000°31'611.8
2018-Jun-17 14:30N 37°31' W 000°37'611.9
2018-Jun-17 14:00N 37°31' W 000°45'611.8
2018-Jun-17 13:30N 37°31' W 000°52'611.2
2018-Jun-17 12:59N 37°32' W 000°59'2 0.1
2018-Jun-16 13:55N 37°34' W 000°57'2 3.6
2018-Jun-16 13:23N 37°34' W 000°60'1 1.8
2018-Jun-16 12:59N 37°33' W 000°60'1 2.7
2018-Jun-16 12:29N 37°32' W 000°59'0 0.9
2018-Jun-16 12:00N 37°32' W 000°59'4 7.2
2018-Jun-16 11:25N 37°32' W 000°54'613.8
2018-Jun-16 11:00N 37°32' W 000°46'713.6
2018-Jun-16 10:30N 37°32' W 000°38'612.9
2018-Jun-16 10:00N 37°37' W 000°32'713.9
2018-Jun-16 09:29N 37°43' W 000°27'813.7
2018-Jun-16 08:55N 37°49' W 000°21'613.7
2018-Jun-16 08:28N 37°54' W 000°17'613.5
2018-Jun-16 08:01N 37°60' W 000°13'713.6
2018-Jun-16 07:30N 38°05' W 000°08'713.7
2018-Jun-16 07:00N 38°11' W 000°03'713.6
2018-Jun-16 06:31N 38°17' E 000°01'713.6
2018-Jun-16 06:00N 38°23' E 000°06'713.7
2018-Jun-16 05:29N 38°29' E 000°11'613.5
2018-Jun-16 05:01N 38°34' E 000°15'713.2
2018-Jun-16 04:31N 38°39' E 000°20'713.4
2018-Jun-16 04:00N 38°45' E 000°24'713.3
2018-Jun-16 03:30N 38°52' E 000°27'  

Dump ship's entire track history